• Join FlightAware (Why Join?)
  • Login
  • US Flag 
12:53AM EDT


 

Airport Tracker/Info


-or-


 

Live Flight TrackerFlight Track Log ✈ AAL1624 ✈ 03-May-2013 ✈ KORD - KMCI

Flight Track Log - Related Links

Times and Time Zones

All times are in EDT time to prevent confusion due to time zone crossing. See the AAL1624 flight status page for this flight to view local times or setup timezone preferences in your user account.

Time Position Orientation Groundspeed Altitude Reporting Facility
EDT Latitude Longitude Course Direction KTS MPH feet Rate Location/Type
01:58AM 42.0000 -87.9460 304° West 173 199 1,600  Level FlightAware
01:59AM 42.0100 -87.9590 316° Northwest 200 230 1,800 1,200 Climbing FlightAware
01:59AM 42.0340 -87.9870 319° Northwest 236 272 2,500 1,740 Climbing FlightAware
02:00AM 42.0560 -88.0110 321° Northwest 251 289 3,400 2,040 Climbing FlightAware
02:00AM 42.0830 -88.0410 320° Northwest 275 316 4,400 1,980 Climbing FlightAware
02:01AM 42.1150 -88.0750 322° Northwest 298 343 5,400 2,280 Climbing FlightAware
02:01AM 42.1410 -88.1030 321° Northwest 304 350 6,500 3,000 Climbing FlightAware
02:01AM 42.1690 -88.1330 322° Northwest 304 350 7,900 3,300 Climbing FlightAware
02:02AM 42.1860 -88.1670 304° West 300 345 9,000 3,180 Climbing FlightAware
02:02AM 42.1880 -88.1850 279° West 298 343 9,500 2,640 Climbing FlightAware
02:03AM 42.1750 -88.2480 254° West 300 345 11,200 1,800 Climbing FlightAware
02:03AM 42.1450 -88.3410 247° West 363 418 12,100 1,980 Climbing FlightAware
02:04AM 42.1120 -88.4360 245° Southwest 379 436 14,200 2,820 Climbing FlightAware
02:05AM 42.0810 -88.5240 245° Southwest 391 450 16,100 2,940 Climbing FlightAware
02:05AM 42.0470 -88.6220 245° Southwest 389 448 18,400 3,000 Climbing FlightAware
02:06AM 42.0170 -88.7090 245° Southwest 388 447 20,400 2,460 Climbing FlightAware
02:07AM 41.9860 -88.7960 244° Southwest 402 463 21,700 1,860 Climbing FlightAware
02:08AM 41.9490 -88.9050 245° Southwest 418 481 23,100 1,860 Climbing FlightAware
02:08AM 41.9160 -88.9980 245° Southwest 428 493 24,400 1,740 Climbing FlightAware
02:09AM 41.8780 -89.1040 244° Southwest 438 504 25,600 1,620 Climbing FlightAware
02:10AM 41.8430 -89.2040 245° Southwest 449 517 26,700 1,500 Climbing FlightAware
02:10AM 41.8060 -89.3080 245° Southwest 458 527 27,600 1,380 Climbing FlightAware
02:11AM 41.7640 -89.4250 244° Southwest 467 537 28,700 1,320 Climbing FlightAware
02:12AM 41.7260 -89.5310 244° Southwest 474 545 29,500 1,500 Climbing FlightAware
02:12AM 41.6890 -89.6360 245° Southwest 474 545 30,700 1,740 Climbing FlightAware
02:13AM 41.6460 -89.7530 244° Southwest 473 544 32,000 1,680 Climbing FlightAware
02:14AM 41.6080 -89.8570 244° Southwest 470 541 33,100 1,380 Climbing FlightAware
02:15AM 41.5650 -89.9750 244° Southwest 469 540 34,000 600 Climbing FlightAware
02:15AM 41.5280 -90.0780 244° Southwest 467 537 34,000  Level FlightAware
02:16AM 41.4860 -90.1930 244° Southwest 466 536 34,000  Level FlightAware
02:17AM 41.4480 -90.2960 244° Southwest 465 535 34,000  Level FlightAware
02:17AM 41.4090 -90.4000 243° Southwest 466 536 34,000  Level FlightAware
02:18AM 41.3660 -90.5160 244° Southwest 466 536 34,000  Level FlightAware
02:19AM 41.3270 -90.6200 243° Southwest 466 536 34,000  Level FlightAware
02:19AM 41.2720 -90.7200 234° Southwest 458 527 34,000  Level FlightAware
02:20AM 41.2200 -90.8090 232° Southwest 459 528 34,000  Level FlightAware
02:21AM 41.1670 -90.8980 232° Southwest 459 528 34,000  Level FlightAware
02:22AM 41.1070 -91.0000 232° Southwest 460 529 34,000  Level FlightAware
02:22AM 41.0550 -91.0870 232° Southwest 460 529 34,000  Level FlightAware
02:23AM 41.0020 -91.1770 232° Southwest 460 529 34,000  Level FlightAware
02:24AM 40.9460 -91.2700 231° Southwest 459 528 34,000  Level FlightAware
02:24AM 40.8910 -91.3600 231° Southwest 459 528 34,000  Level FlightAware
02:25AM 40.8310 -91.4610 232° Southwest 461 531 34,000  Level FlightAware
02:26AM 40.7770 -91.5490 231° Southwest 461 531 34,000  Level FlightAware
02:26AM 40.7180 -91.6460 231° Southwest 462 532 34,000  Level FlightAware
02:27AM 40.6650 -91.7340 232° Southwest 463 533 34,000  Level FlightAware
02:28AM 40.6110 -91.8230 231° Southwest 463 533 34,000  Level FlightAware
02:29AM 40.5490 -91.9240 231° Southwest 464 534 34,000  Level FlightAware
02:29AM 40.4960 -92.0100 231° Southwest 465 535 34,000  Level FlightAware
02:30AM 40.4370 -92.1060 231° Southwest 466 536 34,000  Level FlightAware
02:31AM 40.3820 -92.1950 231° Southwest 468 539 34,000  Level FlightAware
02:31AM 40.3340 -92.2730 231° Southwest 469 540 34,000  Level FlightAware
02:32AM 40.2650 -92.3830 231° Southwest 470 541 34,000 -120 Level FlightAware
02:33AM 40.2100 -92.4710 231° Southwest 470 541 33,900 -600 Descending FlightAware
02:33AM 40.1550 -92.5590 231° Southwest 474 545 33,200 -1,020 Descending FlightAware
02:34AM 40.1030 -92.6750 240° Southwest 491 565 32,500 -960 Descending FlightAware
02:35AM 40.0620 -92.7800 243° Southwest 492 566 31,900 -1,020 Descending FlightAware
02:36AM 40.0160 -92.9000 243° Southwest 495 570 31,100 -1,020 Descending FlightAware
02:36AM 39.9760 -93.0010 243° Southwest 495 570 30,500 -1,620 Descending FlightAware
02:37AM 39.9340 -93.1100 243° Southwest 482 555 29,000 -2,340 Descending FlightAware
02:38AM 39.8890 -93.2270 243° Southwest 474 545 27,200 -2,400 Descending FlightAware
02:38AM 39.8500 -93.3240 242° Southwest 469 540 25,600 -2,400 Descending FlightAware
02:39AM 39.8060 -93.4370 243° Southwest 457 526 23,800 -2,520 Descending FlightAware
02:40AM 39.7670 -93.5330 242° Southwest 449 517 22,100 -2,520 Descending FlightAware
02:40AM 39.7240 -93.6410 243° Southwest 440 506 20,300 -2,400 Descending FlightAware
02:41AM 39.6870 -93.7350 243° Southwest 432 497 18,700 -2,400 Descending FlightAware
02:42AM 39.6500 -93.8270 242° Southwest 424 488 17,100 -2,280 Descending FlightAware
02:43AM 39.6080 -93.9210 240° Southwest 409 471 15,500 -2,220 Descending FlightAware
02:43AM 39.5670 -94.0020 237° Southwest 401 461 14,000 -2,040 Descending FlightAware
02:44AM 39.5270 -94.0820 237° Southwest 384 442 12,800 -1,080 Descending FlightAware
02:45AM 39.4840 -94.1650 236° Southwest 348 400 12,500 -540 Descending FlightAware
02:45AM 39.4490 -94.2340 237° Southwest 350 403 12,100 -360 Descending FlightAware
02:46AM 39.4100 -94.3120 237° Southwest 341 392 12,000 -360 Descending FlightAware
02:47AM 39.3810 -94.3550 229° Southwest 326 375 11,700 -1,200 Descending FlightAware
02:47AM 39.3310 -94.4010 215° Southwest 324 373 10,600 -1,680 Descending FlightAware
02:48AM 39.3000 -94.4300 216° Southwest 316 364 9,900 -1,680 Descending FlightAware
02:48AM 39.2650 -94.4630 216° Southwest 308 354 9,100 -1,620 Descending FlightAware
02:48AM 39.2490 -94.4770 214° Southwest 308 354 8,700 -1,680 Descending FlightAware
02:49AM 39.2200 -94.5040 216° Southwest 303 349 8,000 -1,680 Descending FlightAware
02:49AM 39.1860 -94.5350 215° Southwest 298 343 7,200 -1,320 Descending FlightAware
02:50AM 39.1590 -94.5600 216° Southwest 284 327 6,800 -780 Descending FlightAware
02:50AM 39.1290 -94.5880 216° Southwest 257 296 6,500 -840 Descending FlightAware
02:50AM 39.1180 -94.6080 235° Southwest 240 276 6,200 -1,200 Descending FlightAware
02:51AM 39.1060 -94.6350 240° Southwest 233 268 5,700 -1,200 Descending FlightAware
02:51AM 39.0900 -94.6710 240° Southwest 231 266 5,100 -960 Descending FlightAware
02:52AM 39.0860 -94.6900 255° West 221 254 5,000 -180 Descending FlightAware
02:52AM 39.0820 -94.7210 261° West 221 254 5,000 1,320 Level FlightAware
02:53AM 39.1400 -94.5770 63° Northeast 269 310 6,600 1,920 Climbing FlightAware
02:53AM 39.1350 -94.5820 218° Southwest 264 304 6,600 -360 Level FlightAware
02:53AM 39.1040 -94.6180 222° Southwest 255 293 6,400 -1,200 Descending FlightAware
02:55AM 39.0840 -94.7590 260° West 4,500 -1,440 Descending FlightAware
02:55AM 39.0850 -94.7680 278° West 202 232 4,300 -600 Descending FlightAware
02:55AM 39.0880 -94.7770 293° West 191 220 4,200 -600 Descending FlightAware
02:55AM 39.0960 -94.7850 322° Northwest 176 203 4,000 -900 Descending FlightAware
02:55AM 39.1000 -94.7850 360° North 158 182 3,900 -240 Descending FlightAware
02:56AM 39.1180 -94.7870 355° North 158 182 3,900  Level FlightAware